createdAt,value
2022-12-04T00:00:33.639Z,78.19
2022-12-04T00:03:18.555Z,78.30
2022-12-04T00:05:45.611Z,78.47
2022-12-04T00:08:12.624Z,78.52
2022-12-04T00:10:43.412Z,78.75
2022-12-04T00:13:10.789Z,78.63
2022-12-04T00:15:42.573Z,78.87
2022-12-04T00:18:09.608Z,78.46
2022-12-04T00:20:40.266Z,78.23
2022-12-04T00:23:07.319Z,78.52
2022-12-04T00:25:37.905Z,78.25
2022-12-04T00:28:08.620Z,78.19
2022-12-04T00:30:40.912Z,78.59
2022-12-04T00:33:07.856Z,78.48
2022-12-04T00:35:34.849Z,77.96
2022-12-04T00:38:02.636Z,78.39
2022-12-04T00:40:29.631Z,78.28
2022-12-04T00:42:56.625Z,78.13
2022-12-04T00:45:23.568Z,78.43
2022-12-04T00:47:50.527Z,78.26
2022-12-04T00:50:17.436Z,78.35
2022-12-04T00:52:44.317Z,78.04
2022-12-04T00:55:11.386Z,78.23
2022-12-04T00:57:38.337Z,78.43
2022-12-04T01:00:08.659Z,78.33
2022-12-04T01:02:35.890Z,78.33
2022-12-04T01:05:03.256Z,78.51
2022-12-04T01:07:30.232Z,78.25
2022-12-04T01:09:57.546Z,78.51
2022-12-04T01:12:24.789Z,78.81
2022-12-04T01:14:51.775Z,78.51
2022-12-04T01:17:19.228Z,78.74
2022-12-04T01:19:46.153Z,78.85
2022-12-04T01:22:13.053Z,78.74
2022-12-04T01:24:40.040Z,78.58
2022-12-04T01:27:07.098Z,78.90
2022-12-04T01:29:34.058Z,78.92
2022-12-04T01:32:01.361Z,78.91
2022-12-04T01:34:28.403Z,78.73
2022-12-04T01:36:55.299Z,78.97
2022-12-04T01:39:22.266Z,78.83
2022-12-04T01:41:49.251Z,78.58
2022-12-04T01:44:20.675Z,79.17
2022-12-04T01:46:51.894Z,79.15
2022-12-04T01:49:28.264Z,79.18
2022-12-04T01:52:00.570Z,78.90
2022-12-04T01:54:31.896Z,79.11
2022-12-04T01:57:07.376Z,78.90
2022-12-04T01:59:42.854Z,79.39
2022-12-04T02:02:14.081Z,79.09
2022-12-04T02:04:42.225Z,79.39
2022-12-04T02:07:09.343Z,78.96
2022-12-04T02:09:39.302Z,78.88
2022-12-04T02:12:06.088Z,78.62
2022-12-04T02:14:39.273Z,78.98
2022-12-04T02:17:18.214Z,79.47
2022-12-04T02:20:06.584Z,79.18
2022-12-04T02:23:00.867Z,79.15
2022-12-04T02:25:42.643Z,79.71
2022-12-04T02:28:24.869Z,79.69
2022-12-04T02:30:57.513Z,79.56
2022-12-04T02:33:34.508Z,79.66
2022-12-04T02:36:07.333Z,79.75
2022-12-04T02:38:42.119Z,79.36
2022-12-04T02:41:17.953Z,79.65
2022-12-04T02:44:12.083Z,79.88
2022-12-04T02:46:47.526Z,79.73
2022-12-04T02:49:19.271Z,80.22
2022-12-04T02:51:48.175Z,80.21
2022-12-04T02:54:50.925Z,80.00
2022-12-04T02:57:30.941Z,79.86
2022-12-04T02:59:59.757Z,80.09
2022-12-04T03:02:49.257Z,80.24
2022-12-04T03:05:19.988Z,80.07
2022-12-04T03:07:53.701Z,80.13
2022-12-04T03:10:34.701Z,80.07
2022-12-04T03:13:13.207Z,79.94
2022-12-04T03:15:43.144Z,80.62
2022-12-04T03:18:26.414Z,80.37
2022-12-04T03:21:02.266Z,80.41
2022-12-04T03:23:35.384Z,80.33
2022-12-04T03:26:20.795Z,80.14
2022-12-04T03:29:25.948Z,80.33
2022-12-04T03:32:13.540Z,80.47
2022-12-04T03:35:02.277Z,80.52
2022-12-04T03:37:47.599Z,80.68
2022-12-04T03:40:28.327Z,80.71
2022-12-04T03:43:19.820Z,80.49
2022-12-04T03:45:59.509Z,80.78
2022-12-04T03:48:38.011Z,80.99
2022-12-04T03:51:14.756Z,81.07
2022-12-04T03:53:45.065Z,80.91
2022-12-04T03:56:16.893Z,81.17
2022-12-04T03:58:50.974Z,81.03
2022-12-04T04:01:22.648Z,80.80
2022-12-04T04:03:53.361Z,80.99
2022-12-04T04:06:27.621Z,81.10
2022-12-04T04:08:58.511Z,81.29
2022-12-04T04:11:33.990Z,81.24
2022-12-04T04:14:29.609Z,81.06
2022-12-04T04:17:23.578Z,80.81
2022-12-04T04:20:16.513Z,80.96
2022-12-04T04:23:06.400Z,80.83
2022-12-04T04:25:38.202Z,80.92
2022-12-04T04:28:05.359Z,81.35
2022-12-04T04:30:33.646Z,81.29
2022-12-04T04:33:11.230Z,81.44
2022-12-04T04:35:38.127Z,81.70
2022-12-04T04:38:04.949Z,81.62
2022-12-04T04:40:41.677Z,82.06
2022-12-04T04:43:19.544Z,82.13
2022-12-04T04:45:47.772Z,82.15
2022-12-04T04:48:27.242Z,82.45
2022-12-04T04:50:55.026Z,82.51
2022-12-04T04:53:27.944Z,82.13
2022-12-04T04:55:55.824Z,82.48
2022-12-04T04:58:22.825Z,82.66
2022-12-04T05:00:58.824Z,82.16
2022-12-04T05:03:27.240Z,82.38
2022-12-04T05:05:54.326Z,82.37
2022-12-04T05:08:21.763Z,82.31
2022-12-04T05:10:48.764Z,82.31
2022-12-04T05:13:16.448Z,82.35
2022-12-04T05:15:43.813Z,82.21
2022-12-04T05:18:11.165Z,82.23
2022-12-04T05:20:39.154Z,82.08
2022-12-04T05:23:06.848Z,82.26
2022-12-04T05:25:33.868Z,82.27
2022-12-04T05:28:00.805Z,82.15
2022-12-04T05:30:27.720Z,82.00
2022-12-04T05:32:54.725Z,82.27
2022-12-04T05:35:21.597Z,81.87
2022-12-04T05:37:48.535Z,81.92
2022-12-04T05:40:15.637Z,82.18
2022-12-04T05:42:42.542Z,82.29
2022-12-04T05:45:09.891Z,82.23
2022-12-04T05:47:43.938Z,82.40
2022-12-04T05:50:13.196Z,82.41
2022-12-04T05:52:40.145Z,82.11
2022-12-04T05:55:07.386Z,82.68
2022-12-04T05:57:34.349Z,82.42
2022-12-04T06:00:01.309Z,82.15
2022-12-04T06:02:28.310Z,82.33
2022-12-04T06:04:55.650Z,82.22
2022-12-04T06:07:22.582Z,82.06
2022-12-04T06:09:49.452Z,82.08
2022-12-04T06:12:16.378Z,81.90
2022-12-04T06:14:43.300Z,82.13
2022-12-04T06:17:10.187Z,82.31
2022-12-04T06:19:37.228Z,82.34
2022-12-04T06:22:04.275Z,82.36
2022-12-04T06:24:31.200Z,82.04
2022-12-04T06:29:45.917Z,82.30
2022-12-04T06:32:16.492Z,82.10
2022-12-04T06:34:50.901Z,82.27
2022-12-04T06:37:17.937Z,82.15
2022-12-04T06:39:44.976Z,82.12
2022-12-04T06:42:12.420Z,82.00
2022-12-04T06:44:39.332Z,82.21
2022-12-04T06:47:06.240Z,82.29
2022-12-04T06:49:33.192Z,82.47
2022-12-04T06:52:00.449Z,82.33
2022-12-04T06:54:27.316Z,82.41
2022-12-04T06:56:54.268Z,82.26
2022-12-04T06:59:21.180Z,82.60
2022-12-04T07:01:48.211Z,82.52
2022-12-04T07:04:15.285Z,82.45
2022-12-04T07:06:42.815Z,82.39
2022-12-04T07:09:15.126Z,82.46
2022-12-04T07:11:43.639Z,82.55
2022-12-04T07:14:11.721Z,82.56
2022-12-04T07:16:41.532Z,82.61
2022-12-04T07:19:11.187Z,82.64
2022-12-04T07:21:38.537Z,82.68
2022-12-04T07:24:05.805Z,82.72
2022-12-04T07:26:33.064Z,82.51
2022-12-04T07:29:00.284Z,82.45
2022-12-04T07:31:28.928Z,82.51
2022-12-04T07:33:57.429Z,82.31
2022-12-04T07:36:25.708Z,82.58
2022-12-04T07:38:56.372Z,82.68
2022-12-04T07:41:23.814Z,82.85
2022-12-04T07:43:50.820Z,83.10
2022-12-04T07:46:21.036Z,82.97
2022-12-04T07:48:48.058Z,82.72
2022-12-04T07:51:21.026Z,83.13
2022-12-04T07:53:49.096Z,82.95
2022-12-04T07:56:16.885Z,82.97
2022-12-04T07:58:43.892Z,83.30
2022-12-04T08:01:10.976Z,83.37
2022-12-04T08:03:43.559Z,83.11
2022-12-04T08:06:14.239Z,83.49
2022-12-04T08:08:41.539Z,83.55
2022-12-04T08:11:11.158Z,83.59
2022-12-04T08:13:38.184Z,83.37
2022-12-04T08:16:07.270Z,83.77
2022-12-04T08:18:34.700Z,83.77
2022-12-04T08:21:13.740Z,83.85
2022-12-04T08:23:42.637Z,83.96
2022-12-04T08:26:10.567Z,83.55
2022-12-04T08:28:38.362Z,83.91
2022-12-04T08:31:09.924Z,83.86
2022-12-04T08:33:37.215Z,83.87
2022-12-04T08:36:09.801Z,84.01
2022-12-04T08:38:37.450Z,83.81
2022-12-04T08:41:07.493Z,83.99
2022-12-04T08:43:34.342Z,84.03
2022-12-04T08:46:04.401Z,84.12
2022-12-04T08:48:32.368Z,84.29
2022-12-04T08:51:01.102Z,84.30
2022-12-04T08:53:28.049Z,84.21
2022-12-04T08:55:55.006Z,84.39
2022-12-04T08:58:22.727Z,84.44
2022-12-04T09:00:49.869Z,84.14
2022-12-04T09:03:19.163Z,84.22
2022-12-04T09:05:46.175Z,84.08
2022-12-04T09:08:14.591Z,84.24
2022-12-04T09:10:42.696Z,84.34
2022-12-04T09:13:09.846Z,84.41
2022-12-04T09:15:40.358Z,84.40
2022-12-04T09:18:09.023Z,84.41
2022-12-04T09:20:36.813Z,84.42
2022-12-04T09:23:05.664Z,84.45
2022-12-04T09:25:37.266Z,84.44
2022-12-04T09:28:04.504Z,84.63
2022-12-04T09:30:31.495Z,84.57
2022-12-04T09:32:58.572Z,84.53
2022-12-04T09:35:25.468Z,84.38
2022-12-04T09:37:52.444Z,84.46
2022-12-04T09:40:35.506Z,84.50
2022-12-04T09:43:43.735Z,84.73
2022-12-04T09:46:25.873Z,84.61
2022-12-04T09:48:56.272Z,84.73
2022-12-04T09:51:25.741Z,84.33
2022-12-04T09:53:58.871Z,84.56
2022-12-04T09:56:30.010Z,84.54
2022-12-04T09:59:05.476Z,84.73
2022-12-04T10:01:51.320Z,84.61
2022-12-04T10:04:18.985Z,84.66
2022-12-04T10:07:19.141Z,84.53
2022-12-04T10:09:51.511Z,84.48
2022-12-04T10:12:18.836Z,84.40
2022-12-04T10:15:04.044Z,84.53
2022-12-04T10:17:47.640Z,84.39
2022-12-04T10:21:06.159Z,84.60
2022-12-04T10:24:12.921Z,84.51
2022-12-04T10:26:45.336Z,84.45
2022-12-04T10:29:20.997Z,84.57
2022-12-04T10:31:50.388Z,84.41
2022-12-04T10:34:26.023Z,84.06
2022-12-04T10:36:58.484Z,84.13
2022-12-04T10:39:34.938Z,84.16
2022-12-04T10:42:47.134Z,84.22
2022-12-04T10:45:14.259Z,84.21
2022-12-04T10:47:45.180Z,84.18
2022-12-04T10:50:23.736Z,84.00
2022-12-04T10:52:51.346Z,83.96
2022-12-04T10:55:29.415Z,84.00
2022-12-04T10:57:56.545Z,84.13
2022-12-04T11:00:33.857Z,84.01
2022-12-04T11:03:03.799Z,83.94
2022-12-04T11:06:01.821Z,83.99
2022-12-04T11:08:50.209Z,83.93
2022-12-04T11:11:25.103Z,83.83
2022-12-04T11:14:24.602Z,83.77
2022-12-04T11:17:03.844Z,83.80
2022-12-04T11:19:34.369Z,83.77
2022-12-04T11:22:30.964Z,83.65
2022-12-04T11:24:59.664Z,83.62
2022-12-04T11:27:33.117Z,83.67
2022-12-04T11:30:16.003Z,83.72
2022-12-04T11:32:44.874Z,83.71
2022-12-04T11:35:24.142Z,83.59
2022-12-04T11:37:58.104Z,83.54
2022-12-04T11:40:26.378Z,83.46
2022-12-04T11:43:05.238Z,83.42
2022-12-04T11:45:32.713Z,83.56
2022-12-04T11:48:03.280Z,83.44
2022-12-04T11:50:36.395Z,83.54
2022-12-04T11:53:18.627Z,83.56
2022-12-04T11:56:04.327Z,83.43
2022-12-04T11:59:07.998Z,83.46
2022-12-04T12:01:44.157Z,83.51
2022-12-04T12:04:32.449Z,83.42
2022-12-04T12:07:16.519Z,83.51
2022-12-04T12:09:57.010Z,83.59
2022-12-04T12:12:36.456Z,83.44
2022-12-04T12:15:25.418Z,83.37
2022-12-04T12:18:24.783Z,83.44
2022-12-04T12:20:58.506Z,83.29
2022-12-04T12:23:40.288Z,83.36
2022-12-04T12:26:18.608Z,83.21
2022-12-04T12:29:09.697Z,83.41
2022-12-04T12:32:05.956Z,83.51
2022-12-04T12:34:44.228Z,83.47
2022-12-04T12:37:23.389Z,83.53
2022-12-04T12:39:55.501Z,83.20
2022-12-04T12:42:35.890Z,83.11
2022-12-04T12:45:38.199Z,83.14
2022-12-04T12:48:21.863Z,83.13
2022-12-04T12:51:14.993Z,83.20
2022-12-04T12:53:53.009Z,83.31
2022-12-04T12:56:30.783Z,83.25
2022-12-04T12:59:03.115Z,83.20
2022-12-04T13:01:41.370Z,83.37
2022-12-04T13:04:15.569Z,83.33
2022-12-04T13:06:43.922Z,83.41
2022-12-04T13:09:32.255Z,83.39
2022-12-04T13:12:05.850Z,83.16
2022-12-04T13:14:32.882Z,83.14
2022-12-04T13:17:34.575Z,83.07
2022-12-04T13:20:10.148Z,83.03
2022-12-04T13:22:52.873Z,82.96
2022-12-04T13:25:36.098Z,82.94
2022-12-04T13:28:25.220Z,82.89
2022-12-04T13:31:07.550Z,82.84
2022-12-04T13:34:28.748Z,82.78
2022-12-04T13:37:01.489Z,82.76
2022-12-04T13:40:11.351Z,82.91
2022-12-04T13:42:41.091Z,82.87
2022-12-04T13:45:24.317Z,82.86
2022-12-04T13:48:05.773Z,82.90
2022-12-04T13:50:35.219Z,82.88
2022-12-04T13:53:02.607Z,82.87
2022-12-04T13:55:39.580Z,82.65
2022-12-04T13:58:12.572Z,82.51
2022-12-04T14:00:43.754Z,82.70
2022-12-04T14:03:34.375Z,82.60
2022-12-04T14:06:07.121Z,82.68
2022-12-04T14:08:43.413Z,82.59
2022-12-04T14:11:16.151Z,82.56
2022-12-04T14:13:43.192Z,82.60
2022-12-04T14:16:29.136Z,82.42
2022-12-04T14:18:59.256Z,82.37
2022-12-04T14:21:41.450Z,82.48
2022-12-04T14:24:31.318Z,82.44
2022-12-04T14:27:14.070Z,82.39
2022-12-04T14:29:49.017Z,82.31
2022-12-04T14:32:24.358Z,82.25
2022-12-04T14:34:53.542Z,82.06
2022-12-04T14:37:30.018Z,82.04
2022-12-04T14:39:59.620Z,82.05
2022-12-04T14:42:34.396Z,82.08
2022-12-04T14:45:05.624Z,82.29
2022-12-04T14:47:43.694Z,82.23
2022-12-04T14:50:24.072Z,82.37
2022-12-04T14:53:06.380Z,82.36
2022-12-04T14:55:55.846Z,82.23
2022-12-04T14:58:34.105Z,82.17
2022-12-04T15:01:02.854Z,82.11
2022-12-04T15:03:35.294Z,82.16
2022-12-04T15:06:06.473Z,82.08
2022-12-04T15:08:34.672Z,82.04
2022-12-04T15:11:24.239Z,82.08
2022-12-04T15:13:51.262Z,81.91
2022-12-04T15:16:21.248Z,81.78
2022-12-04T15:18:58.423Z,81.76
2022-12-04T15:21:38.484Z,81.84
2022-12-04T15:24:19.638Z,81.91
2022-12-04T15:26:55.545Z,81.83
2022-12-04T15:29:27.185Z,81.86
2022-12-04T15:31:58.613Z,81.80
2022-12-04T15:34:45.513Z,81.85
2022-12-04T15:37:19.812Z,81.91
2022-12-04T15:39:47.765Z,81.69
2022-12-04T15:42:25.934Z,81.71
2022-12-04T15:45:08.221Z,81.80
2022-12-04T15:47:53.024Z,81.83
2022-12-04T15:50:26.458Z,81.84
2022-12-04T15:53:05.688Z,82.11
2022-12-04T15:55:47.998Z,82.11
2022-12-04T15:58:22.544Z,82.20
2022-12-04T16:01:14.090Z,82.13
2022-12-04T16:03:41.536Z,82.28
2022-12-04T16:06:28.892Z,82.40
2022-12-04T16:09:11.736Z,82.39
2022-12-04T16:11:40.478Z,82.20
2022-12-04T16:14:07.352Z,82.18
2022-12-04T16:16:37.076Z,82.24
2022-12-04T16:19:14.178Z,82.47
2022-12-04T16:21:43.781Z,82.41
2022-12-04T16:24:13.306Z,82.67
2022-12-04T16:26:41.005Z,82.78
2022-12-04T16:29:08.126Z,82.86
2022-12-04T16:31:37.361Z,82.88
2022-12-04T16:34:04.437Z,83.03
2022-12-04T16:36:32.017Z,83.05
2022-12-04T16:38:59.336Z,83.04
2022-12-04T16:41:26.619Z,82.99
2022-12-04T16:43:56.199Z,82.85
2022-12-04T16:46:25.405Z,82.72
2022-12-04T16:48:52.770Z,82.81
2022-12-04T16:51:25.424Z,83.03
2022-12-04T16:53:53.862Z,83.02
2022-12-04T16:56:21.973Z,83.10
2022-12-04T16:58:49.222Z,83.37
2022-12-04T17:01:28.034Z,83.64
2022-12-04T17:03:55.170Z,83.46
2022-12-04T17:06:22.173Z,83.42
2022-12-04T17:08:49.611Z,83.36
2022-12-04T17:11:17.675Z,83.32
2022-12-04T17:13:45.323Z,83.31
2022-12-04T17:16:14.968Z,83.15
2022-12-04T17:18:42.603Z,83.07
2022-12-04T17:21:11.804Z,82.90
2022-12-04T17:23:39.563Z,82.80
2022-12-04T17:26:12.855Z,82.79
2022-12-04T17:28:40.747Z,82.74
2022-12-04T17:31:20.107Z,82.53
2022-12-04T17:33:49.855Z,82.51
2022-12-04T17:36:23.071Z,82.51
2022-12-04T17:38:55.382Z,82.34
2022-12-04T17:41:23.013Z,82.37
2022-12-04T17:43:50.089Z,82.30
2022-12-04T17:46:21.086Z,82.37
2022-12-04T17:48:48.791Z,82.20
2022-12-04T17:51:18.937Z,82.10
2022-12-04T17:53:46.535Z,82.12
2022-12-04T17:56:16.902Z,82.08
2022-12-04T17:58:44.803Z,81.97
2022-12-04T18:01:17.741Z,81.88
2022-12-04T18:03:50.043Z,82.01
2022-12-04T18:06:24.083Z,82.12
2022-12-04T18:08:52.282Z,82.07
2022-12-04T18:11:21.260Z,81.80
2022-12-04T18:13:53.258Z,81.82
2022-12-04T18:16:20.387Z,81.79
2022-12-04T18:18:47.472Z,81.90
2022-12-04T18:21:14.990Z,81.75
2022-12-04T18:23:45.320Z,81.66
2022-12-04T18:26:18.168Z,81.61
2022-12-04T18:28:46.405Z,81.57
2022-12-04T18:31:14.883Z,81.49
2022-12-04T18:33:42.942Z,81.54
2022-12-04T18:36:18.710Z,81.61
2022-12-04T18:38:46.705Z,81.58
2022-12-04T18:41:14.490Z,81.82
2022-12-04T18:43:45.004Z,81.96
2022-12-04T18:46:14.330Z,81.90
2022-12-04T18:48:43.005Z,81.83
2022-12-04T18:51:15.496Z,81.78
2022-12-04T18:53:45.668Z,81.65
2022-12-04T18:56:12.947Z,81.66
2022-12-04T18:58:40.452Z,81.66
2022-12-04T19:01:13.395Z,81.71
2022-12-04T19:03:40.740Z,81.60
2022-12-04T19:06:08.406Z,81.54
2022-12-04T19:08:40.008Z,81.48
2022-12-04T19:11:15.206Z,81.68
2022-12-04T19:13:42.646Z,81.81
2022-12-04T19:16:12.198Z,81.92
2022-12-04T19:18:39.453Z,81.97
2022-12-04T19:21:06.893Z,82.10
2022-12-04T19:23:34.206Z,81.86
2022-12-04T19:26:01.690Z,81.87
2022-12-04T19:28:29.277Z,81.86
2022-12-04T19:30:56.426Z,81.87
2022-12-04T19:33:24.567Z,81.88
2022-12-04T19:36:04.032Z,81.81
2022-12-04T19:38:32.276Z,81.78
2022-12-04T19:41:08.768Z,81.74
2022-12-04T19:43:37.954Z,81.52
2022-12-04T19:46:06.147Z,81.50
2022-12-04T19:48:34.148Z,81.70
2022-12-04T19:51:14.428Z,81.59
2022-12-04T19:53:42.129Z,81.44
2022-12-04T19:56:21.852Z,81.56
2022-12-04T19:58:48.859Z,81.53
2022-12-04T20:01:18.632Z,81.56
2022-12-04T20:03:46.044Z,81.55
2022-12-04T20:06:16.072Z,81.46
2022-12-04T20:08:43.760Z,81.42
2022-12-04T20:11:16.480Z,81.54
2022-12-04T20:13:45.738Z,81.48
2022-12-04T20:16:18.038Z,81.46
2022-12-04T20:18:48.425Z,81.46
2022-12-04T20:21:15.907Z,81.40
2022-12-04T20:23:49.303Z,81.31
2022-12-04T20:26:22.278Z,81.52
2022-12-04T20:28:54.048Z,81.46
2022-12-04T20:31:24.940Z,81.29
2022-12-04T20:33:54.168Z,81.35
2022-12-04T20:36:23.273Z,81.35
2022-12-04T20:38:54.822Z,81.49
2022-12-04T20:41:21.974Z,81.35
2022-12-04T20:43:49.125Z,81.42
2022-12-04T20:46:21.774Z,81.37
2022-12-04T20:48:50.040Z,81.38
2022-12-04T20:51:26.191Z,81.35
2022-12-04T20:53:54.550Z,81.20
2022-12-04T20:56:23.162Z,81.25
2022-12-04T20:58:50.061Z,81.32
2022-12-04T21:01:20.507Z,81.41
2022-12-04T21:03:47.437Z,81.12
2022-12-04T21:06:19.212Z,81.20
2022-12-04T21:08:53.224Z,81.28
2022-12-04T21:11:21.320Z,81.02
2022-12-04T21:14:06.748Z,81.16
2022-12-04T21:16:34.267Z,81.18
2022-12-04T21:19:05.757Z,80.94
2022-12-04T21:21:34.780Z,80.99
2022-12-04T21:24:02.890Z,80.95
2022-12-04T21:26:30.792Z,81.05
2022-12-04T21:28:58.177Z,81.05
2022-12-04T21:31:29.351Z,80.91
2022-12-04T21:33:58.699Z,80.79
2022-12-04T21:36:26.773Z,80.77
2022-12-04T21:38:54.452Z,80.72
2022-12-04T21:41:41.998Z,80.71
2022-12-04T21:44:12.299Z,80.56
2022-12-04T21:46:39.427Z,80.63
2022-12-04T21:49:07.334Z,80.63
2022-12-04T21:54:22.270Z,80.43
2022-12-04T21:56:49.221Z,80.50
2022-12-04T21:59:16.165Z,80.49
2022-12-04T22:01:43.238Z,80.60
2022-12-04T22:04:10.293Z,80.49
2022-12-04T22:06:37.421Z,80.48
2022-12-04T22:09:10.039Z,80.39
2022-12-04T22:11:38.420Z,80.60
2022-12-04T22:14:05.305Z,80.65
2022-12-04T22:16:35.711Z,80.43
2022-12-04T22:19:05.424Z,80.36
2022-12-04T22:21:32.382Z,80.51
2022-12-04T22:24:01.269Z,80.49
2022-12-04T22:26:29.590Z,80.42
2022-12-04T22:28:59.307Z,80.50
2022-12-04T22:31:28.177Z,80.44
2022-12-04T22:33:57.887Z,80.59
2022-12-04T22:36:28.257Z,80.58
2022-12-04T22:39:11.391Z,80.55
2022-12-04T22:41:38.777Z,80.57
2022-12-04T22:44:06.226Z,80.64
2022-12-04T22:46:33.854Z,80.67
2022-12-04T22:49:01.181Z,80.63
2022-12-04T22:51:31.183Z,80.60
2022-12-04T22:53:58.226Z,80.60
2022-12-04T22:56:27.832Z,80.59
2022-12-04T22:58:55.909Z,80.65
2022-12-04T23:01:31.546Z,80.77
2022-12-04T23:04:00.542Z,80.79
2022-12-04T23:06:30.161Z,80.70
2022-12-04T23:09:01.262Z,80.67
2022-12-04T23:11:28.823Z,80.80
2022-12-04T23:13:59.648Z,80.72
2022-12-04T23:16:29.277Z,80.76
2022-12-04T23:18:56.626Z,80.76
2022-12-04T23:21:24.332Z,80.92
2022-12-04T23:23:52.990Z,80.81
2022-12-04T23:26:23.392Z,80.77
2022-12-04T23:28:50.607Z,80.78
2022-12-04T23:31:17.936Z,80.72
2022-12-04T23:33:44.961Z,80.68
2022-12-04T23:36:13.607Z,80.88
2022-12-04T23:38:42.970Z,80.93
2022-12-04T23:41:19.301Z,81.02
2022-12-04T23:43:47.511Z,80.89
2022-12-04T23:46:18.259Z,81.12
2022-12-04T23:48:45.638Z,81.11
2022-12-04T23:51:15.682Z,81.05
2022-12-04T23:53:42.877Z,81.17
2022-12-04T23:56:16.185Z,81.13
2022-12-04T23:58:45.331Z,81.28
